Time;durP1;ratioP1;P1;durP2;ratioP2;P2;SDS_P1;SDS_P2;PMS_P1;PMS_P2;Temp;Humidity;BMP_temperature;BMP_pressure;BME280_temperature;BME280_humidity;BME280_pressure;Samples;Min_cycle;Max_cycle;Signal;HPM_P1;HPM_P2
2020/12/25 00:00:56;;;;;;;4.93;0.80;;;;;;;;;;5084468;28;20040;-70
2020/12/25 00:03:22;;;;;;;3.55;0.57;;;;;;;;;;5069151;28;20055;-71
2020/12/25 00:05:49;;;;;;;4.45;0.73;;;;;;;;;;5069549;28;20055;-70
2020/12/25 00:08:15;;;;;;;10.52;1.05;;;;;;;;;;5073133;28;20028;-71
2020/12/25 00:10:42;;;;;;;6.75;0.68;;;;;;;;;;5065861;28;20471;-70
2020/12/25 00:13:09;;;;;;;3.67;0.80;;;;;;;;;;5068564;28;20059;-70
2020/12/25 00:15:35;;;;;;;8.50;0.70;;;;;;;;;;5071679;28;20063;-71
2020/12/25 00:18:01;;;;;;;4.15;0.98;;;;;;;;;;5057853;28;20123;-70
2020/12/25 00:20:28;;;;;;;4.03;0.70;;;;;;;;;;5065960;28;20041;-70
2020/12/25 00:22:54;;;;;;;8.55;1.02;;;;;;;;;;5055698;28;20055;-70
2020/12/25 00:25:20;;;;;;;4.15;0.70;;;;;;;;;;5062124;28;20052;-71
2020/12/25 00:27:47;;;;;;;3.30;0.82;;;;;;;;;;5066405;28;20055;-70
2020/12/25 00:30:13;;;;;;;5.10;0.85;;;;;;;;;;5060035;28;20045;-70
2020/12/25 00:32:40;;;;;;;11.40;1.10;;;;;;;;;;5055540;28;20502;-70
2020/12/25 00:35:06;;;;;;;9.43;0.98;;;;;;;;;;5060193;28;20052;-70
2020/12/25 00:37:32;;;;;;;8.50;1.13;;;;;;;;;;5060657;28;20037;-71
2020/12/25 00:39:58;;;;;;;10.23;1.25;;;;;;;;;;5065183;28;20052;-70
2020/12/25 00:42:25;;;;;;;12.25;2.65;;;;;;;;;;5061950;28;20503;-70
2020/12/25 00:44:51;;;;;;;8.40;1.20;;;;;;;;;;5056414;28;21878;-70
2020/12/25 00:47:17;;;;;;;4.63;1.58;;;;;;;;;;5056123;28;20046;-71
2020/12/25 00:49:44;;;;;;;6.50;1.30;;;;;;;;;;5064831;28;20037;-71
2020/12/25 00:52:10;;;;;;;7.28;1.17;;;;;;;;;;5056143;28;20485;-70
2020/12/25 00:54:36;;;;;;;7.03;1.42;;;;;;;;;;5055565;28;20144;-71
2020/12/25 00:57:03;;;;;;;6.95;0.75;;;;;;;;;;5061209;28;20044;-71
2020/12/25 00:59:29;;;;;;;6.13;0.90;;;;;;;;;;5063932;28;20353;-71
2020/12/25 01:01:55;;;;;;;7.07;1.00;;;;;;;;;;5058423;28;20033;-70
2020/12/25 01:04:22;;;;;;;6.95;0.98;;;;;;;;;;5063208;28;20368;-70
2020/12/25 01:06:48;;;;;;;9.90;1.27;;;;;;;;;;5058517;28;20354;-70
2020/12/25 01:09:15;;;;;;;4.50;0.80;;;;;;;;;;5066202;28;20047;-70
2020/12/25 01:11:41;;;;;;;6.57;0.98;;;;;;;;;;5060941;28;20043;-70
2020/12/25 01:14:08;;;;;;;12.27;3.20;;;;;;;;;;5057697;28;20044;-70
2020/12/25 01:16:34;;;;;;;9.88;0.75;;;;;;;;;;5059730;28;20116;-70
2020/12/25 01:19:00;;;;;;;2.75;0.60;;;;;;;;;;5060668;28;20047;-71
2020/12/25 01:21:27;;;;;;;4.55;0.65;;;;;;;;;;5059742;28;20045;-71
2020/12/25 01:23:53;;;;;;;6.05;0.60;;;;;;;;;;5060862;28;20446;-70
2020/12/25 01:26:19;;;;;;;3.67;0.70;;;;;;;;;;5067391;28;20033;-70
2020/12/25 01:28:45;;;;;;;6.05;1.00;;;;;;;;;;5065728;28;20063;-70
2020/12/25 01:31:12;;;;;;;8.23;0.70;;;;;;;;;;5068204;28;20041;-70
2020/12/25 01:33:38;;;;;;;5.13;1.08;;;;;;;;;;5068037;28;20123;-70
2020/12/25 01:36:05;;;;;;;5.85;0.63;;;;;;;;;;5068163;28;20044;-71
2020/12/25 01:38:32;;;;;;;5.50;1.15;;;;;;;;;;5066716;28;20510;-71
2020/12/25 01:40:58;;;;;;;2.10;0.50;;;;;;;;;;5069428;28;20048;-70
2020/12/25 01:43:25;;;;;;;6.13;0.55;;;;;;;;;;5061411;28;20040;-71
2020/12/25 01:45:52;;;;;;;3.60;0.40;;;;;;;;;;5063215;28;20064;-70
2020/12/25 01:48:18;;;;;;;6.68;1.85;;;;;;;;;;5058869;28;20519;-71
2020/12/25 01:50:45;;;;;;;7.45;1.52;;;;;;;;;;5067488;28;20238;-70
2020/12/25 01:53:11;;;;;;;11.32;0.88;;;;;;;;;;5069826;28;20120;-71
2020/12/25 01:55:38;;;;;;;4.30;1.15;;;;;;;;;;5062855;28;20157;-70
2020/12/25 01:58:05;;;;;;;5.75;0.70;;;;;;;;;;5066307;28;20044;-70
2020/12/25 02:00:31;;;;;;;4.28;0.57;;;;;;;;;;5071645;28;21739;-70
2020/12/25 02:02:57;;;;;;;3.60;0.60;;;;;;;;;;5073306;28;20052;-70
2020/12/25 02:05:24;;;;;;;4.07;0.60;;;;;;;;;;5068232;28;20042;-71
2020/12/25 02:07:50;;;;;;;3.70;0.68;;;;;;;;;;5076540;28;20365;-70
2020/12/25 02:10:18;;;;;;;4.43;0.85;;;;;;;;;;5068451;28;20872;-70
2020/12/25 02:12:45;;;;;;;9.27;1.00;;;;;;;;;;5061131;28;20055;-70
2020/12/25 02:15:11;;;;;;;13.52;1.52;;;;;;;;;;5075183;28;20048;-70
2020/12/25 02:17:44;;;;;;;6.18;0.63;;;;;;;;;;5066113;28;20467;-71
2020/12/25 02:20:10;;;;;;;4.85;0.57;;;;;;;;;;5062528;28;20044;-71
2020/12/25 02:22:37;;;;;;;1.90;0.90;;;;;;;;;;5067275;28;20042;-70
2020/12/25 02:25:04;;;;;;;12.15;1.25;;;;;;;;;;5066422;28;20158;-70
2020/12/25 02:27:30;;;;;;;6.53;0.75;;;;;;;;;;5066691;28;20060;-70
2020/12/25 02:29:56;;;;;;;6.00;0.90;;;;;;;;;;5069975;28;20044;-70
2020/12/25 02:32:23;;;;;;;5.93;1.83;;;;;;;;;;5067719;28;21822;-71
2020/12/25 02:34:50;;;;;;;13.55;2.60;;;;;;;;;;5066709;28;20150;-71
2020/12/25 02:37:16;;;;;;;23.98;1.95;;;;;;;;;;5061527;28;20135;-71
2020/12/25 02:39:42;;;;;;;20.15;2.10;;;;;;;;;;5069012;28;20091;-70
2020/12/25 02:42:14;;;;;;;14.93;1.88;;;;;;;;;;5071477;28;20040;-70
2020/12/25 02:44:43;;;;;;;14.05;1.80;;;;;;;;;;5073654;28;20048;-70
2020/12/25 02:47:10;;;;;;;11.05;1.52;;;;;;;;;;5065796;28;20036;-70
2020/12/25 02:49:36;;;;;;;8.98;1.50;;;;;;;;;;5066370;28;20059;-71
2020/12/25 02:52:03;;;;;;;23.15;2.92;;;;;;;;;;5066257;28;20045;-71
2020/12/25 02:54:29;;;;;;;12.02;1.58;;;;;;;;;;5066120;28;20036;-71
2020/12/25 02:56:56;;;;;;;11.38;1.30;;;;;;;;;;5065092;28;20040;-70
2020/12/25 02:59:22;;;;;;;13.00;1.70;;;;;;;;;;5067976;28;20459;-71
2020/12/25 03:01:49;;;;;;;18.02;1.88;;;;;;;;;;5066803;28;20063;-71
2020/12/25 03:04:16;;;;;;;18.58;2.45;;;;;;;;;;5067947;28;20403;-70
2020/12/25 03:06:42;;;;;;;8.43;1.50;;;;;;;;;;5072397;28;20435;-70
2020/12/25 03:09:08;;;;;;;15.07;2.10;;;;;;;;;;5069747;28;20044;-70
2020/12/25 03:11:35;;;;;;;15.93;1.70;;;;;;;;;;5063960;28;20047;-71
2020/12/25 03:14:01;;;;;;;11.23;1.75;;;;;;;;;;5065834;28;20135;-71
2020/12/25 03:16:27;;;;;;;20.60;2.13;;;;;;;;;;5057177;28;20033;-70
2020/12/25 03:18:54;;;;;;;14.02;1.98;;;;;;;;;;5059948;28;20045;-70
2020/12/25 03:21:20;;;;;;;15.60;1.92;;;;;;;;;;5062226;28;21397;-70
2020/12/25 03:23:46;;;;;;;12.73;2.05;;;;;;;;;;5064352;28;20053;-70
2020/12/25 03:26:14;;;;;;;21.80;2.42;;;;;;;;;;5065475;28;20117;-71
2020/12/25 03:28:41;;;;;;;19.08;2.60;;;;;;;;;;5070945;28;20036;-70
2020/12/25 03:31:07;;;;;;;15.52;1.75;;;;;;;;;;5058667;28;20044;-71
2020/12/25 03:33:33;;;;;;;15.63;2.05;;;;;;;;;;5069231;28;20044;-70
2020/12/25 03:36:00;;;;;;;21.42;2.75;;;;;;;;;;5069846;28;20461;-70
2020/12/25 03:38:27;;;;;;;9.93;2.22;;;;;;;;;;5065885;28;20067;-70
2020/12/25 03:40:53;;;;;;;20.52;3.72;;;;;;;;;;5069566;28;20052;-71
2020/12/25 03:43:20;;;;;;;26.50;2.72;;;;;;;;;;5066288;28;20055;-70
2020/12/25 03:45:46;;;;;;;15.45;2.90;;;;;;;;;;5067913;28;20044;-71
2020/12/25 03:48:13;;;;;;;17.83;2.55;;;;;;;;;;5066539;28;20041;-70
2020/12/25 03:50:39;;;;;;;15.48;2.13;;;;;;;;;;5061096;28;20055;-70
2020/12/25 03:53:05;;;;;;;20.38;2.53;;;;;;;;;;5065410;28;21353;-70
2020/12/25 03:55:32;;;;;;;18.17;1.88;;;;;;;;;;5064495;28;20381;-70
2020/12/25 03:57:58;;;;;;;14.20;2.40;;;;;;;;;;5064571;28;20075;-70
2020/12/25 04:00:24;;;;;;;19.15;1.90;;;;;;;;;;5082006;28;20168;-70
2020/12/25 04:02:50;;;;;;;10.38;2.10;;;;;;;;;;5063297;28;20389;-70
2020/12/25 04:05:17;;;;;;;14.20;1.88;;;;;;;;;;5068891;28;20104;-70
2020/12/25 04:07:43;;;;;;;14.20;1.60;;;;;;;;;;5064387;28;20044;-70
2020/12/25 04:10:09;;;;;;;19.98;2.33;;;;;;;;;;5061619;28;20120;-70
2020/12/25 04:12:35;;;;;;;8.05;1.85;;;;;;;;;;5057150;28;20045;-70
2020/12/25 04:15:02;;;;;;;12.98;1.73;;;;;;;;;;5064611;28;20044;-71
2020/12/25 04:17:28;;;;;;;12.32;1.75;;;;;;;;;;5061255;28;20045;-71
2020/12/25 04:19:54;;;;;;;11.57;2.20;;;;;;;;;;5066901;28;20193;-71
2020/12/25 04:22:20;;;;;;;16.10;1.55;;;;;;;;;;5072618;28;20036;-70
2020/12/25 04:24:47;;;;;;;21.98;2.78;;;;;;;;;;5072688;28;20117;-71
2020/12/25 04:27:13;;;;;;;13.40;2.03;;;;;;;;;;5069474;28;20115;-70
2020/12/25 04:29:39;;;;;;;12.85;1.25;;;;;;;;;;5074089;28;20032;-70
2020/12/25 04:32:05;;;;;;;7.32;1.10;;;;;;;;;;5071201;28;20072;-71
2020/12/25 04:34:32;;;;;;;10.90;1.10;;;;;;;;;;5070212;28;20101;-71
2020/12/25 04:36:58;;;;;;;10.23;1.00;;;;;;;;;;5069542;28;20131;-71
2020/12/25 04:39:25;;;;;;;8.10;1.40;;;;;;;;;;5067448;28;20407;-70
2020/12/25 04:41:51;;;;;;;6.45;0.82;;;;;;;;;;5071898;28;20039;-70
2020/12/25 04:44:17;;;;;;;7.78;1.20;;;;;;;;;;5070021;28;20047;-70
2020/12/25 04:46:44;;;;;;;7.00;1.33;;;;;;;;;;5069306;28;20093;-70
2020/12/25 04:49:10;;;;;;;6.10;1.00;;;;;;;;;;5069905;28;20045;-70
2020/12/25 04:51:36;;;;;;;5.13;0.63;;;;;;;;;;5066796;28;20041;-71
2020/12/25 04:54:02;;;;;;;4.70;0.80;;;;;;;;;;5064990;28;20511;-71
2020/12/25 04:56:29;;;;;;;8.73;0.80;;;;;;;;;;5066750;28;20110;-70
2020/12/25 04:58:55;;;;;;;6.65;0.70;;;;;;;;;;5069274;28;20432;-70
2020/12/25 05:01:21;;;;;;;3.55;0.80;;;;;;;;;;5066220;28;20048;-70
2020/12/25 05:03:48;;;;;;;6.95;1.08;;;;;;;;;;5082047;28;20044;-70
2020/12/25 05:06:16;;;;;;;6.68;0.88;;;;;;;;;;5068206;28;20036;-70
2020/12/25 05:08:43;;;;;;;3.90;0.73;;;;;;;;;;5067928;28;20475;-70
2020/12/25 05:11:10;;;;;;;9.18;0.73;;;;;;;;;;5068692;28;20059;-70
2020/12/25 05:13:43;;;;;;;8.52;1.33;;;;;;;;;;5064753;28;20463;-70
2020/12/25 05:16:10;;;;;;;8.10;0.95;;;;;;;;;;5071243;28;20044;-70
2020/12/25 05:18:39;;;;;;;11.02;1.75;;;;;;;;;;5058983;28;20056;-71
2020/12/25 05:21:09;;;;;;;16.60;1.90;;;;;;;;;;5064741;28;20076;-70
2020/12/25 05:23:36;;;;;;;11.35;1.42;;;;;;;;;;5066623;28;20431;-70
2020/12/25 05:26:04;;;;;;;5.20;1.00;;;;;;;;;;5069597;28;20051;-71
2020/12/25 05:28:30;;;;;;;6.10;0.57;;;;;;;;;;5058336;28;20499;-71
2020/12/25 05:30:58;;;;;;;5.53;0.70;;;;;;;;;;5060019;28;20041;-71
2020/12/25 05:33:25;;;;;;;4.70;0.68;;;;;;;;;;5072811;28;20043;-71
2020/12/25 05:35:53;;;;;;;13.90;4.43;;;;;;;;;;5064895;28;20498;-71
2020/12/25 05:38:20;;;;;;;4.43;0.63;;;;;;;;;;5068896;28;20123;-70
2020/12/25 05:40:46;;;;;;;9.90;1.00;;;;;;;;;;5069370;28;20033;-71
2020/12/25 05:43:14;;;;;;;7.85;0.95;;;;;;;;;;5069309;28;20044;-71
2020/12/25 05:45:41;;;;;;;6.03;0.93;;;;;;;;;;5068554;28;20133;-70
2020/12/25 05:48:08;;;;;;;10.52;0.90;;;;;;;;;;5067147;28;20087;-71
2020/12/25 05:50:34;;;;;;;23.83;3.00;;;;;;;;;;5085315;28;20040;-70
2020/12/25 05:53:01;;;;;;;15.73;1.63;;;;;;;;;;5067265;28;20040;-71
2020/12/25 05:55:28;;;;;;;16.65;1.80;;;;;;;;;;5069769;28;20060;-71
2020/12/25 05:57:55;;;;;;;10.90;1.77;;;;;;;;;;5064308;28;20063;-71
2020/12/25 06:00:23;;;;;;;8.20;1.75;;;;;;;;;;5071644;28;20052;-71
2020/12/25 06:02:50;;;;;;;10.98;1.20;;;;;;;;;;5071879;28;20037;-70
2020/12/25 06:05:17;;;;;;;12.30;1.55;;;;;;;;;;5065792;28;20488;-70
2020/12/25 06:07:53;;;;;;;12.20;2.40;;;;;;;;;;5067978;28;20049;-70
2020/12/25 06:10:20;;;;;;;8.07;1.20;;;;;;;;;;5067179;28;20040;-71
2020/12/25 06:12:47;;;;;;;5.68;1.00;;;;;;;;;;5065853;28;20067;-71
2020/12/25 06:15:19;;;;;;;7.03;1.10;;;;;;;;;;5067800;28;20045;-71
2020/12/25 06:17:51;;;;;;;6.50;1.10;;;;;;;;;;5067973;28;20036;-71
2020/12/25 06:20:19;;;;;;;9.15;1.10;;;;;;;;;;5065572;28;20060;-71
2020/12/25 06:22:45;;;;;;;7.25;1.00;;;;;;;;;;5064138;28;20048;-70
2020/12/25 06:25:13;;;;;;;10.60;1.10;;;;;;;;;;5064919;28;20044;-70
2020/12/25 06:27:48;;;;;;;7.25;1.05;;;;;;;;;;5067868;28;20049;-70
2020/12/25 06:30:22;;;;;;;11.75;1.60;;;;;;;;;;5066623;28;20499;-71
2020/12/25 06:32:49;;;;;;;7.68;1.20;;;;;;;;;;5063678;28;20047;-71
2020/12/25 06:35:15;;;;;;;5.82;1.08;;;;;;;;;;5083592;28;20140;-71
2020/12/25 06:37:42;;;;;;;8.85;1.17;;;;;;;;;;5067280;28;20127;-71
2020/12/25 06:40:09;;;;;;;7.18;0.82;;;;;;;;;;5068752;28;21866;-70
2020/12/25 06:42:36;;;;;;;10.18;1.13;;;;;;;;;;5068900;28;20049;-71
2020/12/25 06:45:04;;;;;;;10.80;1.20;;;;;;;;;;5065255;28;20033;-71
2020/12/25 06:47:31;;;;;;;10.07;1.05;;;;;;;;;;5067473;28;20119;-71
2020/12/25 06:49:57;;;;;;;9.15;1.25;;;;;;;;;;5068293;28;20076;-71
2020/12/25 06:52:30;;;;;;;10.20;1.00;;;;;;;;;;5069236;28;20259;-71
2020/12/25 06:54:57;;;;;;;7.30;1.20;;;;;;;;;;5064927;28;20071;-70
2020/12/25 06:57:26;;;;;;;12.30;1.10;;;;;;;;;;5067600;28;20048;-70
2020/12/25 06:59:52;;;;;;;10.10;1.13;;;;;;;;;;5064780;28;20446;-70
2020/12/25 07:02:19;;;;;;;11.55;1.20;;;;;;;;;;5064887;28;20072;-71
2020/12/25 07:04:48;;;;;;;8.98;1.20;;;;;;;;;;5064568;28;20041;-70
2020/12/25 07:07:19;;;;;;;10.88;1.35;;;;;;;;;;5066940;28;20048;-70
2020/12/25 07:09:46;;;;;;;14.35;1.95;;;;;;;;;;5065665;28;20056;-71
2020/12/25 07:12:14;;;;;;;12.45;1.50;;;;;;;;;;5069318;28;20052;-70
2020/12/25 07:14:40;;;;;;;7.82;1.45;;;;;;;;;;5063794;28;20044;-70
2020/12/25 07:17:07;;;;;;;11.75;1.33;;;;;;;;;;5070105;28;20532;-70
2020/12/25 07:19:35;;;;;;;17.85;1.67;;;;;;;;;;5066367;28;20074;-69
2020/12/25 07:22:01;;;;;;;10.77;1.27;;;;;;;;;;5068800;28;20383;-71
2020/12/25 07:24:27;;;;;;;13.18;1.50;;;;;;;;;;5066373;28;20140;-71
2020/12/25 07:26:54;;;;;;;12.93;1.08;;;;;;;;;;5071380;28;20040;-71
2020/12/25 07:29:21;;;;;;;8.80;3.08;;;;;;;;;;5064563;28;20040;-71
2020/12/25 07:31:48;;;;;;;9.70;1.45;;;;;;;;;;5067778;28;20127;-73
2020/12/25 07:34:22;;;;;;;12.20;1.70;;;;;;;;;;5069425;28;20044;-69
2020/12/25 07:36:48;;;;;;;;;;;;;;;;;;5074940;28;20040;-73
2020/12/25 07:39:14;;;;;;;7.75;1.92;;;;;;;;;;5063527;28;20014;-73
2020/12/25 07:41:41;;;;;;;10.07;1.67;;;;;;;;;;5068547;28;20041;-70
2020/12/25 07:44:08;;;;;;;4.38;1.42;;;;;;;;;;5068335;28;20048;-72
2020/12/25 07:46:34;;;;;;;8.50;2.08;;;;;;;;;;5066120;28;20052;-71
2020/12/25 07:49:01;;;;;;;8.20;0.95;;;;;;;;;;5071831;28;20056;-71
2020/12/25 07:51:28;;;;;;;6.95;1.30;;;;;;;;;;5076491;28;20032;-71
2020/12/25 07:53:55;;;;;;;6.97;1.05;;;;;;;;;;5075618;28;20128;-71
2020/12/25 07:56:23;;;;;;;9.15;1.95;;;;;;;;;;5073034;28;20052;-71
2020/12/25 07:58:50;;;;;;;12.52;3.30;;;;;;;;;;5065142;28;20123;-71
2020/12/25 08:01:18;;;;;;;5.75;1.27;;;;;;;;;;5071152;28;20068;-70
2020/12/25 08:03:44;;;;;;;11.82;2.05;;;;;;;;;;5064272;28;20056;-72
2020/12/25 08:06:11;;;;;;;7.88;1.27;;;;;;;;;;5068108;28;20045;-71
2020/12/25 08:08:38;;;;;;;8.32;1.20;;;;;;;;;;5068283;28;20052;-72
2020/12/25 08:11:04;;;;;;;8.70;1.40;;;;;;;;;;5074084;28;20065;-72
2020/12/25 08:13:33;;;;;;;11.15;1.55;;;;;;;;;;5070214;28;20063;-71
2020/12/25 08:15:59;;;;;;;13.93;1.50;;;;;;;;;;5073610;28;20044;-72
2020/12/25 08:18:26;;;;;;;13.82;1.77;;;;;;;;;;5071371;28;20458;-72
2020/12/25 08:20:54;;;;;;;16.73;1.50;;;;;;;;;;5071713;28;20055;-71
2020/12/25 08:23:20;;;;;;;11.55;1.50;;;;;;;;;;5073278;28;20043;-71
2020/12/25 08:25:53;;;;;;;10.13;1.65;;;;;;;;;;5071097;28;20087;-71
2020/12/25 08:28:20;;;;;;;7.53;1.52;;;;;;;;;;5083675;28;20055;-72
2020/12/25 08:30:47;;;;;;;13.25;1.50;;;;;;;;;;5068489;28;20504;-72
2020/12/25 08:33:21;;;;;;;14.15;2.08;;;;;;;;;;5066602;28;20350;-71
2020/12/25 08:35:48;;;;;;;9.55;2.35;;;;;;;;;;5066079;28;20041;-69
2020/12/25 08:38:16;;;;;;;5.50;1.02;;;;;;;;;;5069788;28;20135;-71
2020/12/25 08:40:44;;;;;;;6.60;1.00;;;;;;;;;;5078217;28;20045;-71
2020/12/25 08:43:13;;;;;;;5.43;0.75;;;;;;;;;;5071881;28;20033;-71
2020/12/25 08:45:40;;;;;;;8.75;0.93;;;;;;;;;;5071540;28;20178;-71
2020/12/25 08:48:08;;;;;;;6.53;1.20;;;;;;;;;;5077930;28;20399;-71
2020/12/25 08:50:35;;;;;;;7.75;1.20;;;;;;;;;;5075072;28;20044;-71
2020/12/25 08:53:18;;;;;;;6.47;1.13;;;;;;;;;;5073170;28;20050;-71
2020/12/25 08:55:45;;;;;;;7.80;1.17;;;;;;;;;;5070586;28;20144;-72
2020/12/25 08:58:11;;;;;;;9.45;2.13;;;;;;;;;;5066008;28;20044;-71
2020/12/25 09:00:38;;;;;;;4.95;0.90;;;;;;;;;;5075967;28;20161;-71
2020/12/25 09:03:04;;;;;;;6.00;1.30;;;;;;;;;;5086911;28;20074;-71
2020/12/25 09:05:30;;;;;;;7.13;1.30;;;;;;;;;;5076591;28;20040;-71
2020/12/25 09:07:57;;;;;;;7.88;1.52;;;;;;;;;;5073806;28;20048;-65
2020/12/25 09:10:23;;;;;;;8.35;1.65;;;;;;;;;;5064477;28;20048;-65
2020/12/25 09:12:49;;;;;;;9.57;1.20;;;;;;;;;;5063164;28;20056;-65
2020/12/25 09:15:16;;;;;;;10.25;1.55;;;;;;;;;;5073606;28;20072;-73
2020/12/25 09:17:42;;;;;;;8.32;0.90;;;;;;;;;;5074026;28;20440;-65
2020/12/25 09:20:08;;;;;;;3.58;0.68;;;;;;;;;;5072463;28;20079;-65
2020/12/25 09:22:35;;;;;;;4.00;0.75;;;;;;;;;;5073139;28;20203;-65
2020/12/25 09:25:01;;;;;;;6.20;1.88;;;;;;;;;;5075439;28;20040;-65
2020/12/25 09:27:27;;;;;;;7.50;1.05;;;;;;;;;;5074202;28;20119;-65
2020/12/25 09:29:54;;;;;;;5.95;0.70;;;;;;;;;;5074271;28;20055;-65
2020/12/25 09:32:20;;;;;;;4.53;0.65;;;;;;;;;;5077153;28;20392;-66
2020/12/25 09:34:46;;;;;;;5.78;1.40;;;;;;;;;;5076586;28;20056;-65
2020/12/25 09:37:12;;;;;;;5.82;0.68;;;;;;;;;;5087005;28;20219;-65
2020/12/25 09:39:39;;;;;;;4.40;0.55;;;;;;;;;;5074995;28;20082;-65
2020/12/25 09:42:05;;;;;;;1.60;0.60;;;;;;;;;;5077785;28;20135;-65
2020/12/25 09:44:32;;;;;;;3.67;0.50;;;;;;;;;;5076156;28;20113;-65
2020/12/25 09:46:58;;;;;;;1.88;0.45;;;;;;;;;;5072379;28;20132;-65
2020/12/25 09:49:25;;;;;;;4.07;0.50;;;;;;;;;;5095918;28;20047;-65
2020/12/25 09:51:51;;;;;;;4.80;0.70;;;;;;;;;;5077452;28;20066;-65
2020/12/25 09:54:17;;;;;;;2.47;0.50;;;;;;;;;;5072535;28;20069;-65
2020/12/25 09:56:44;;;;;;;5.03;0.73;;;;;;;;;;5070482;28;20039;-65
2020/12/25 09:59:10;;;;;;;9.82;1.20;;;;;;;;;;5070571;28;20068;-65
2020/12/25 10:01:36;;;;;;;4.03;0.80;;;;;;;;;;5078017;28;20044;-65
2020/12/25 10:04:02;;;;;;;4.07;1.10;;;;;;;;;;5073215;28;20476;-65
2020/12/25 10:06:29;;;;;;;6.38;1.13;;;;;;;;;;5072340;28;20048;-64
2020/12/25 10:08:55;;;;;;;7.18;1.13;;;;;;;;;;5071990;28;20491;-65
2020/12/25 10:11:21;;;;;;;5.38;1.98;;;;;;;;;;5073883;28;20048;-64
2020/12/25 10:13:48;;;;;;;8.88;1.20;;;;;;;;;;5081907;28;20064;-65
2020/12/25 10:16:14;;;;;;;14.80;1.70;;;;;;;;;;5074735;28;20163;-64
2020/12/25 10:18:40;;;;;;;9.07;1.35;;;;;;;;;;5071422;28;20064;-65
2020/12/25 10:21:07;;;;;;;6.57;1.27;;;;;;;;;;5074825;28;20108;-65
2020/12/25 10:23:33;;;;;;;12.20;1.77;;;;;;;;;;5075188;28;20035;-66
2020/12/25 10:25:59;;;;;;;9.90;1.35;;;;;;;;;;5077443;28;20109;-65
2020/12/25 10:28:25;;;;;;;8.63;1.48;;;;;;;;;;5065750;28;20242;-65
2020/12/25 10:30:52;;;;;;;14.20;2.15;;;;;;;;;;5062956;28;20447;-65
2020/12/25 10:33:18;;;;;;;8.20;1.42;;;;;;;;;;5068386;28;20041;-66
2020/12/25 10:35:45;;;;;;;9.02;1.40;;;;;;;;;;5070540;28;20078;-65
2020/12/25 10:38:11;;;;;;;7.68;0.85;;;;;;;;;;5073134;28;20135;-65
2020/12/25 10:40:37;;;;;;;6.65;1.10;;;;;;;;;;5070909;28;20055;-65
2020/12/25 10:43:04;;;;;;;6.00;0.77;;;;;;;;;;5067801;28;20064;-65
2020/12/25 10:45:31;;;;;;;7.00;0.80;;;;;;;;;;5069136;28;20052;-65
2020/12/25 10:47:57;;;;;;;9.20;0.90;;;;;;;;;;5062890;28;20336;-65
2020/12/25 10:50:23;;;;;;;10.23;1.45;;;;;;;;;;5065079;28;20475;-65
2020/12/25 10:52:50;;;;;;;9.23;1.25;;;;;;;;;;5065086;28;20488;-65
2020/12/25 10:55:17;;;;;;;6.32;0.93;;;;;;;;;;5074286;28;20143;-65
2020/12/25 10:57:43;;;;;;;8.40;1.10;;;;;;;;;;5067611;28;20052;-65
2020/12/25 11:00:10;;;;;;;10.95;1.33;;;;;;;;;;5056040;28;20033;-65
2020/12/25 11:02:36;;;;;;;10.77;1.20;;;;;;;;;;5065239;28;20072;-65
2020/12/25 11:05:02;;;;;;;8.18;1.13;;;;;;;;;;5058520;28;20041;-65
2020/12/25 11:07:29;;;;;;;5.93;1.10;;;;;;;;;;5061284;28;20123;-65
2020/12/25 11:09:55;;;;;;;6.38;1.38;;;;;;;;;;5050898;28;20036;-65
2020/12/25 11:12:21;;;;;;;9.05;1.70;;;;;;;;;;5055811;28;20127;-65
2020/12/25 11:14:48;;;;;;;13.93;2.90;;;;;;;;;;5071842;28;20052;-65
2020/12/25 11:17:15;;;;;;;9.13;1.30;;;;;;;;;;5063995;28;20036;-65
2020/12/25 11:19:42;;;;;;;8.40;1.88;;;;;;;;;;5065166;28;20044;-65
2020/12/25 11:22:16;;;;;;;9.23;1.35;;;;;;;;;;5065814;28;20049;-65
2020/12/25 11:24:43;;;;;;;12.77;1.38;;;;;;;;;;5071753;28;20051;-64
2020/12/25 11:27:10;;;;;;;15.55;2.00;;;;;;;;;;5068357;28;20066;-65
2020/12/25 11:29:36;;;;;;;14.93;1.70;;;;;;;;;;5069165;28;20118;-65
2020/12/25 11:32:03;;;;;;;13.00;1.90;;;;;;;;;;5066171;28;20111;-65
2020/12/25 11:34:29;;;;;;;7.05;1.20;;;;;;;;;;5065818;28;20052;-65
2020/12/25 11:36:55;;;;;;;19.15;3.25;;;;;;;;;;5070878;28;20102;-66
2020/12/25 11:39:21;;;;;;;9.30;1.73;;;;;;;;;;5066613;28;20056;-66
2020/12/25 11:41:48;;;;;;;10.30;1.60;;;;;;;;;;5064661;28;20461;-66
2020/12/25 11:44:14;;;;;;;12.98;2.03;;;;;;;;;;5065266;28;20055;-66
2020/12/25 11:46:41;;;;;;;14.32;1.60;;;;;;;;;;5063648;28;20119;-66
2020/12/25 11:49:08;;;;;;;12.95;2.35;;;;;;;;;;5080839;28;20048;-66
2020/12/25 11:51:34;;;;;;;10.02;1.90;;;;;;;;;;5068668;28;20040;-66
2020/12/25 11:54:01;;;;;;;8.63;1.80;;;;;;;;;;5066287;28;20037;-66
2020/12/25 11:56:30;;;;;;;12.55;3.05;;;;;;;;;;5066719;28;20049;-65
2020/12/25 11:58:57;;;;;;;11.60;1.50;;;;;;;;;;5065204;28;20098;-66
2020/12/25 12:01:23;;;;;;;14.25;1.77;;;;;;;;;;5066847;28;20041;-66
2020/12/25 12:03:49;;;;;;;8.73;1.10;;;;;;;;;;5074921;28;20135;-66
2020/12/25 12:06:19;;;;;;;10.50;1.88;;;;;;;;;;5064092;28;20040;-66
2020/12/25 12:08:46;;;;;;;8.63;1.73;;;;;;;;;;5063477;28;20064;-66
2020/12/25 12:11:12;;;;;;;7.88;1.10;;;;;;;;;;5063989;28;20103;-66
2020/12/25 12:13:39;;;;;;;10.68;1.40;;;;;;;;;;5066190;28;20049;-65
2020/12/25 12:16:05;;;;;;;3.67;0.70;;;;;;;;;;5066410;28;20068;-66
2020/12/25 12:18:31;;;;;;;12.60;1.85;;;;;;;;;;5069328;28;20037;-66
2020/12/25 12:20:58;;;;;;;5.88;1.08;;;;;;;;;;5068801;28;20048;-65
2020/12/25 12:23:24;;;;;;;7.68;1.00;;;;;;;;;;5064763;28;20508;-65
2020/12/25 12:25:50;;;;;;;5.50;1.05;;;;;;;;;;5072746;28;20075;-65
2020/12/25 12:28:17;;;;;;;4.40;1.02;;;;;;;;;;5062720;28;20358;-65
2020/12/25 12:30:43;;;;;;;10.90;1.30;;;;;;;;;;5062496;28;20041;-65
2020/12/25 12:33:09;;;;;;;9.23;1.48;;;;;;;;;;5060819;28;20037;-65
2020/12/25 12:35:35;;;;;;;5.65;1.30;;;;;;;;;;5063350;28;20117;-65
2020/12/25 12:38:02;;;;;;;4.13;0.80;;;;;;;;;;5078148;28;20390;-65
2020/12/25 12:40:28;;;;;;;6.40;1.58;;;;;;;;;;5069089;28;20048;-65
2020/12/25 12:42:54;;;;;;;6.63;1.20;;;;;;;;;;5069435;28;20041;-65
2020/12/25 12:45:21;;;;;;;9.25;1.10;;;;;;;;;;5077228;28;20041;-65
2020/12/25 12:47:48;;;;;;;12.23;1.45;;;;;;;;;;5080344;28;20048;-66
2020/12/25 12:50:14;;;;;;;13.38;1.45;;;;;;;;;;5072801;28;20036;-65
2020/12/25 12:52:40;;;;;;;12.98;1.40;;;;;;;;;;5067785;28;20055;-65
2020/12/25 12:55:07;;;;;;;9.40;1.98;;;;;;;;;;5067266;28;20048;-66
2020/12/25 12:57:33;;;;;;;12.05;1.60;;;;;;;;;;5064840;28;20048;-66
2020/12/25 12:59:59;;;;;;;14.93;2.25;;;;;;;;;;5067202;28;20157;-65
2020/12/25 13:02:26;;;;;;;9.30;2.38;;;;;;;;;;5068153;28;20045;-66
2020/12/25 13:04:52;;;;;;;10.48;2.28;;;;;;;;;;5073626;28;20040;-65
2020/12/25 13:07:18;;;;;;;10.23;2.20;;;;;;;;;;5075224;28;20119;-66
2020/12/25 13:09:44;;;;;;;10.93;1.92;;;;;;;;;;5073431;28;20379;-65
2020/12/25 13:12:11;;;;;;;17.88;1.63;;;;;;;;;;5076929;28;20468;-65
2020/12/25 13:14:37;;;;;;;9.77;1.90;;;;;;;;;;5082747;28;20047;-66
2020/12/25 13:17:04;;;;;;;15.15;1.98;;;;;;;;;;5079874;28;20132;-65
2020/12/25 13:19:31;;;;;;;8.68;1.55;;;;;;;;;;5085054;28;20429;-65
2020/12/25 13:21:58;;;;;;;11.57;1.75;;;;;;;;;;5073691;28;20040;-66
2020/12/25 13:24:26;;;;;;;8.68;2.33;;;;;;;;;;5073275;28;20041;-65
2020/12/25 13:26:52;;;;;;;10.65;1.20;;;;;;;;;;5081086;28;20097;-66
2020/12/25 13:29:18;;;;;;;8.98;1.02;;;;;;;;;;5076063;28;20041;-66
2020/12/25 13:31:45;;;;;;;5.22;1.48;;;;;;;;;;5069742;28;20040;-65
2020/12/25 13:34:11;;;;;;;8.80;1.52;;;;;;;;;;5075915;28;20045;-71
2020/12/25 13:36:37;;;;;;;11.68;2.60;;;;;;;;;;5073150;28;20059;-72
2020/12/25 13:39:04;;;;;;;6.60;1.02;;;;;;;;;;5073459;28;20045;-73
2020/12/25 13:41:31;;;;;;;8.90;1.15;;;;;;;;;;5073600;28;20182;-72
2020/12/25 13:43:59;;;;;;;13.75;1.85;;;;;;;;;;5073139;28;20048;-72
2020/12/25 13:46:26;;;;;;;8.60;1.50;;;;;;;;;;5072765;28;20399;-72
2020/12/25 13:48:53;;;;;;;4.43;0.90;;;;;;;;;;5086067;28;20149;-73
2020/12/25 13:51:20;;;;;;;6.75;1.05;;;;;;;;;;5072241;28;20118;-73
2020/12/25 13:53:47;;;;;;;9.13;1.88;;;;;;;;;;5088393;28;20067;-72
2020/12/25 13:56:14;;;;;;;9.20;1.30;;;;;;;;;;5081029;28;20452;-72
2020/12/25 13:58:40;;;;;;;12.57;1.55;;;;;;;;;;5082234;28;20056;-72
2020/12/25 14:01:08;;;;;;;13.68;2.00;;;;;;;;;;5072833;28;20032;-72
2020/12/25 14:03:36;;;;;;;7.47;1.92;;;;;;;;;;5074102;28;20527;-73
2020/12/25 14:06:02;;;;;;;11.07;1.27;;;;;;;;;;5070362;28;20134;-73
2020/12/25 14:08:29;;;;;;;10.65;1.63;;;;;;;;;;5078272;28;20059;-73
2020/12/25 14:10:55;;;;;;;8.95;1.45;;;;;;;;;;5081475;28;20079;-65
2020/12/25 14:13:22;;;;;;;11.88;1.00;;;;;;;;;;5073555;28;20043;-65
2020/12/25 14:15:48;;;;;;;11.50;1.15;;;;;;;;;;5063973;28;20461;-66
2020/12/25 14:18:15;;;;;;;9.45;1.52;;;;;;;;;;5068334;28;20041;-66
2020/12/25 14:20:42;;;;;;;8.68;1.40;;;;;;;;;;5067004;28;20519;-65
2020/12/25 14:23:08;;;;;;;10.98;1.02;;;;;;;;;;5058340;28;20041;-65
2020/12/25 14:25:35;;;;;;;13.13;1.70;;;;;;;;;;5059824;28;20111;-65
2020/12/25 14:28:02;;;;;;;10.32;1.42;;;;;;;;;;5066609;28;20069;-65
2020/12/25 14:30:28;;;;;;;10.05;1.30;;;;;;;;;;5066298;28;20050;-65
2020/12/25 14:32:55;;;;;;;10.30;2.10;;;;;;;;;;5064477;28;20372;-65
2020/12/25 14:35:21;;;;;;;4.53;1.20;;;;;;;;;;5061340;28;20207;-65